Terminal Aerodrome Forecast
Issued by NWS

Home | Current Version | Previous Version | Text Only | Print | Product List | Glossary Off
Versions: 1 2 3 4 5 6 7 8 9 10 11 12 13 14 15

000
FTUS41 KCLE 202323
TAFFDY
TAF
KFDY 202323Z 2100/2124 VRB03KT P6SM SCT045
     FM210800 00000KT 5SM BR SCT250
      TEMPO 2109/2113 1SM BR BKN015
     FM211500 14004KT P6SM SCT250=

USA.gov is the U.S. government's official web portal to all federal, state and local government web resources and services.